BTY8538 LEVT-LPPT
Flight info
| Callsign | BTY8538 |
|---|---|
| Flight time | 1h 18m |
| Altitude | 35000 |
| Route | NEA DCT ARDID DCT INBOM |
| Aircraft | A320/M-SDE3FGHIRWY/LB1 |
Departure
| Time | 2026-05-07 19:07 |
|---|---|
| Airport | Vitoria Airport (LEVT) |
Arrival
| Time | 2026-05-07 20:25 |
|---|---|
| Airport | Lisbon Humberto Delgado Airport (LPPT) |
| Time | Latitude | Longitude | Altitude | Speed | Heading |
|---|---|---|---|---|---|
| 2026-05-07 18:37 | 42.88386 | -2.72996 | 1682 ft | 0 kts | 346° |
| 2026-05-07 18:59 | 42.88388 | -2.72996 | 1677 ft | 2 kts | 350° |
| 2026-05-07 19:00 | 42.88396 | -2.72985 | 1677 ft | 1 kts | 79° |
| 2026-05-07 19:00 | 42.88390 | -2.72976 | 1685 ft | 1 kts | 123° |
| 2026-05-07 19:00 | 42.88386 | -2.72970 | 1683 ft | 4 kts | 127° |
| 2026-05-07 19:00 | 42.88354 | -2.72956 | 1677 ft | 5 kts | 184° |
| 2026-05-07 19:01 | 42.88309 | -2.72975 | 1677 ft | 8 kts | 184° |
| 2026-05-07 19:01 | 42.88259 | -2.72914 | 1682 ft | 10 kts | 126° |
| 2026-05-07 19:01 | 42.88221 | -2.72837 | 1679 ft | 9 kts | 109° |
| 2026-05-07 19:01 | 42.88254 | -2.72777 | 1680 ft | 10 kts | 34° |
| 2026-05-07 19:02 | 42.88334 | -2.72700 | 1681 ft | 16 kts | 37° |
| 2026-05-07 19:02 | 42.88418 | -2.72616 | 1677 ft | 14 kts | 34° |
| 2026-05-07 19:02 | 42.88498 | -2.72538 | 1677 ft | 15 kts | 36° |
| 2026-05-07 19:02 | 42.88576 | -2.72461 | 1684 ft | 13 kts | 36° |
| 2026-05-07 19:03 | 42.88654 | -2.72385 | 1680 ft | 17 kts | 36° |
| 2026-05-07 19:03 | 42.88753 | -2.72287 | 1682 ft | 17 kts | 34° |
| 2026-05-07 19:03 | 42.88848 | -2.72194 | 1677 ft | 20 kts | 36° |
| 2026-05-07 19:03 | 42.88980 | -2.72064 | 1677 ft | 25 kts | 35° |
| 2026-05-07 19:04 | 42.89125 | -2.71922 | 1687 ft | 26 kts | 36° |
| 2026-05-07 19:04 | 42.89273 | -2.71777 | 1684 ft | 27 kts | 36° |
| 2026-05-07 19:04 | 42.89430 | -2.71622 | 1680 ft | 28 kts | 36° |
| 2026-05-07 19:04 | 42.89580 | -2.71473 | 1684 ft | 18 kts | 35° |
| 2026-05-07 19:05 | 42.89633 | -2.71364 | 1686 ft | 13 kts | 109° |
| 2026-05-07 19:05 | 42.89584 | -2.71271 | 1685 ft | 12 kts | 133° |
| 2026-05-07 19:05 | 42.89484 | -2.71264 | 1685 ft | 11 kts | 214° |
| 2026-05-07 19:05 | 42.89469 | -2.71280 | 1687 ft | 0 kts | 218° |
| 2026-05-07 19:06 | 42.88720 | -2.72017 | 1680 ft | 130 kts | 216° |
| 2026-05-07 19:06 | 42.87868 | -2.72849 | 1835 ft | 163 kts | 215° |
| 2026-05-07 19:07 | 42.86925 | -2.73746 | 2477 ft | 166 kts | 214° |
| 2026-05-07 19:07 | 42.85972 | -2.74627 | 3239 ft | 165 kts | 213° |
| 2026-05-07 19:07 | 42.84997 | -2.75529 | 3729 ft | 177 kts | 213° |
| 2026-05-07 19:07 | 42.83917 | -2.76530 | 3984 ft | 198 kts | 213° |
| 2026-05-07 19:08 | 42.82719 | -2.77643 | 4303 ft | 216 kts | 213° |
| 2026-05-07 19:08 | 42.81464 | -2.78810 | 4931 ft | 220 kts | 213° |
| 2026-05-07 19:08 | 42.80199 | -2.79990 | 5734 ft | 221 kts | 213° |
| 2026-05-07 19:08 | 42.78919 | -2.81185 | 6486 ft | 224 kts | 213° |
| 2026-05-07 19:09 | 42.77625 | -2.82393 | 7210 ft | 227 kts | 213° |
| 2026-05-07 19:09 | 42.76316 | -2.83619 | 7961 ft | 230 kts | 213° |
| 2026-05-07 19:09 | 42.75009 | -2.84844 | 8703 ft | 232 kts | 214° |
| 2026-05-07 19:09 | 42.73674 | -2.86109 | 9462 ft | 235 kts | 217° |
| 2026-05-07 19:10 | 42.72528 | -2.87715 | 10180 ft | 239 kts | 232° |
| 2026-05-07 19:10 | 42.71526 | -2.89532 | 10899 ft | 241 kts | 232° |
| 2026-05-07 19:10 | 42.70513 | -2.91364 | 11614 ft | 243 kts | 232° |
| 2026-05-07 19:10 | 42.69489 | -2.93208 | 12337 ft | 246 kts | 232° |
| 2026-05-07 19:11 | 42.68453 | -2.95073 | 13059 ft | 248 kts | 232° |
| 2026-05-07 19:11 | 42.67407 | -2.96956 | 13774 ft | 251 kts | 232° |
| 2026-05-07 19:11 | 42.66353 | -2.98853 | 14412 ft | 253 kts | 232° |
| 2026-05-07 19:11 | 42.65290 | -3.00765 | 15064 ft | 254 kts | 232° |
| 2026-05-07 19:12 | 42.64217 | -3.02687 | 15710 ft | 256 kts | 232° |
| 2026-05-07 19:12 | 42.63149 | -3.04598 | 16322 ft | 258 kts | 232° |
| 2026-05-07 19:12 | 42.62059 | -3.06545 | 16986 ft | 260 kts | 233° |
| 2026-05-07 19:12 | 42.60963 | -3.08504 | 17650 ft | 261 kts | 233° |
| 2026-05-07 19:13 | 42.59859 | -3.10477 | 18283 ft | 263 kts | 233° |
| 2026-05-07 19:13 | 42.58749 | -3.12462 | 18833 ft | 265 kts | 233° |
| 2026-05-07 19:13 | 42.57633 | -3.14457 | 19385 ft | 267 kts | 233° |
| 2026-05-07 19:13 | 42.56508 | -3.16467 | 19935 ft | 268 kts | 233° |
| 2026-05-07 19:14 | 42.55375 | -3.18491 | 20471 ft | 271 kts | 233° |
| 2026-05-07 19:14 | 42.54231 | -3.20532 | 21018 ft | 273 kts | 233° |
| 2026-05-07 19:14 | 42.53078 | -3.22590 | 21595 ft | 275 kts | 233° |
| 2026-05-07 19:14 | 42.51914 | -3.24665 | 22174 ft | 277 kts | 233° |
| 2026-05-07 19:15 | 42.50741 | -3.26755 | 22736 ft | 280 kts | 233° |
| 2026-05-07 19:15 | 42.49523 | -3.28920 | 22900 ft | 298 kts | 233° |
| 2026-05-07 19:15 | 42.48234 | -3.31211 | 23041 ft | 314 kts | 233° |
| 2026-05-07 19:15 | 42.46879 | -3.33618 | 23193 ft | 329 kts | 233° |
| 2026-05-07 19:16 | 42.45458 | -3.36137 | 23337 ft | 344 kts | 233° |
| 2026-05-07 19:16 | 42.43976 | -3.38765 | 23480 ft | 358 kts | 233° |
| 2026-05-07 19:16 | 42.42436 | -3.41497 | 23600 ft | 371 kts | 233° |
| 2026-05-07 19:16 | 42.40845 | -3.44313 | 23724 ft | 383 kts | 233° |
| 2026-05-07 19:17 | 42.39194 | -3.47229 | 23857 ft | 394 kts | 233° |
| 2026-05-07 19:17 | 42.37516 | -3.50197 | 24150 ft | 400 kts | 233° |
| 2026-05-07 19:17 | 42.35817 | -3.53195 | 24530 ft | 403 kts | 234° |
| 2026-05-07 19:17 | 42.34107 | -3.56205 | 24888 ft | 405 kts | 234° |
| 2026-05-07 19:18 | 42.32408 | -3.59198 | 25249 ft | 408 kts | 234° |
| 2026-05-07 19:18 | 42.30674 | -3.62246 | 25638 ft | 410 kts | 234° |
| 2026-05-07 19:18 | 42.28928 | -3.65308 | 26022 ft | 412 kts | 235° |
| 2026-05-07 19:18 | 42.27175 | -3.68386 | 26403 ft | 414 kts | 235° |
| 2026-05-07 19:19 | 42.25413 | -3.71481 | 26782 ft | 417 kts | 235° |
| 2026-05-07 19:19 | 42.23639 | -3.74590 | 27154 ft | 419 kts | 236° |
| 2026-05-07 19:19 | 42.21857 | -3.77710 | 27511 ft | 421 kts | 236° |
| 2026-05-07 19:19 | 42.20064 | -3.80843 | 27879 ft | 423 kts | 236° |
| 2026-05-07 19:20 | 42.18259 | -3.83990 | 28227 ft | 425 kts | 236° |
| 2026-05-07 19:20 | 42.16443 | -3.87154 | 28570 ft | 427 kts | 237° |
| 2026-05-07 19:20 | 42.14617 | -3.90328 | 28909 ft | 429 kts | 237° |
| 2026-05-07 19:20 | 42.12786 | -3.93512 | 29208 ft | 431 kts | 237° |
| 2026-05-07 19:21 | 42.10949 | -3.96708 | 29587 ft | 432 kts | 238° |
| 2026-05-07 19:21 | 42.09109 | -3.99909 | 29944 ft | 433 kts | 238° |
| 2026-05-07 19:21 | 42.07260 | -4.03119 | 30233 ft | 434 kts | 238° |
| 2026-05-07 19:21 | 42.05431 | -4.06288 | 30535 ft | 435 kts | 238° |
| 2026-05-07 19:22 | 42.03584 | -4.09495 | 30948 ft | 431 kts | 239° |
| 2026-05-07 19:22 | 42.02009 | -4.12869 | 31381 ft | 421 kts | 248° |
| 2026-05-07 19:22 | 42.00687 | -4.16367 | 31816 ft | 418 kts | 249° |
| 2026-05-07 19:22 | 41.99375 | -4.19834 | 32262 ft | 415 kts | 249° |
| 2026-05-07 19:23 | 41.98069 | -4.23281 | 32710 ft | 412 kts | 249° |
| 2026-05-07 19:23 | 41.96771 | -4.26697 | 33160 ft | 409 kts | 249° |
| 2026-05-07 19:23 | 41.95481 | -4.30084 | 33601 ft | 406 kts | 249° |
| 2026-05-07 19:23 | 41.94195 | -4.33451 | 34022 ft | 403 kts | 249° |
| 2026-05-07 19:24 | 41.92915 | -4.36793 | 34359 ft | 402 kts | 249° |
| 2026-05-07 19:24 | 41.91638 | -4.40132 | 34643 ft | 402 kts | 249° |
| 2026-05-07 19:24 | 41.90358 | -4.43477 | 34862 ft | 403 kts | 248° |
| 2026-05-07 19:24 | 41.89078 | -4.46823 | 34919 ft | 402 kts | 249° |
| 2026-05-07 19:25 | 41.86523 | -4.53484 | 34931 ft | 401 kts | 249° |
| 2026-05-07 19:25 | 41.83969 | -4.60132 | 34923 ft | 400 kts | 248° |
| 2026-05-07 19:26 | 41.81436 | -4.66694 | 34928 ft | 398 kts | 248° |
| 2026-05-07 19:26 | 41.78889 | -4.73285 | 34949 ft | 398 kts | 248° |
| 2026-05-07 19:27 | 41.76337 | -4.79865 | 34946 ft | 398 kts | 248° |
| 2026-05-07 19:27 | 41.73782 | -4.86440 | 34942 ft | 398 kts | 248° |
| 2026-05-07 19:28 | 41.71226 | -4.93017 | 34942 ft | 398 kts | 248° |
| 2026-05-07 19:28 | 41.68668 | -4.99585 | 34929 ft | 398 kts | 248° |
| 2026-05-07 19:29 | 41.66105 | -5.06147 | 34917 ft | 398 kts | 247° |
| 2026-05-07 19:29 | 41.63544 | -5.12687 | 34927 ft | 397 kts | 247° |
| 2026-05-07 19:30 | 41.60979 | -5.19215 | 34925 ft | 397 kts | 247° |
| 2026-05-07 19:30 | 41.58415 | -5.25737 | 34924 ft | 396 kts | 247° |
| 2026-05-07 19:31 | 41.55860 | -5.32201 | 34917 ft | 396 kts | 247° |
| 2026-05-07 19:31 | 41.53287 | -5.38707 | 34896 ft | 396 kts | 246° |
| 2026-05-07 19:32 | 41.50713 | -5.45204 | 34896 ft | 396 kts | 246° |
| 2026-05-07 19:32 | 41.48132 | -5.51703 | 34892 ft | 397 kts | 246° |
| 2026-05-07 19:33 | 41.45544 | -5.58203 | 34894 ft | 397 kts | 246° |
| 2026-05-07 19:33 | 41.42951 | -5.64707 | 34894 ft | 397 kts | 246° |
| 2026-05-07 19:34 | 41.40361 | -5.71204 | 34870 ft | 397 kts | 246° |
| 2026-05-07 19:34 | 41.37761 | -5.77704 | 34882 ft | 397 kts | 245° |
| 2026-05-07 19:35 | 41.35156 | -5.84191 | 34885 ft | 397 kts | 245° |
| 2026-05-07 19:35 | 41.32552 | -5.90671 | 34888 ft | 397 kts | 245° |
| 2026-05-07 19:36 | 41.29960 | -5.97102 | 34886 ft | 397 kts | 245° |
| 2026-05-07 19:36 | 41.27345 | -6.03576 | 34889 ft | 397 kts | 245° |
| 2026-05-07 19:37 | 41.24728 | -6.10041 | 34874 ft | 397 kts | 245° |
| 2026-05-07 19:37 | 41.22109 | -6.16500 | 34880 ft | 397 kts | 245° |
| 2026-05-07 19:38 | 41.19929 | -6.21858 | 34875 ft | 397 kts | 245° |
| 2026-05-07 19:38 | 41.17240 | -6.28308 | 34841 ft | 402 kts | 240° |
| 2026-05-07 19:39 | 41.13906 | -6.34334 | 34855 ft | 407 kts | 237° |
| 2026-05-07 19:39 | 41.10507 | -6.40366 | 34859 ft | 409 kts | 237° |
| 2026-05-07 19:40 | 41.07092 | -6.46406 | 34859 ft | 410 kts | 237° |
| 2026-05-07 19:40 | 41.03671 | -6.52453 | 34870 ft | 410 kts | 236° |
| 2026-05-07 19:41 | 41.00251 | -6.58501 | 34871 ft | 410 kts | 236° |
| 2026-05-07 19:41 | 40.96828 | -6.64542 | 34875 ft | 410 kts | 236° |
| 2026-05-07 19:42 | 40.93425 | -6.70539 | 34863 ft | 410 kts | 236° |
| 2026-05-07 19:42 | 40.89989 | -6.76572 | 34878 ft | 410 kts | 236° |
| 2026-05-07 19:43 | 40.86549 | -6.82594 | 34874 ft | 410 kts | 236° |
| 2026-05-07 19:43 | 40.83106 | -6.88607 | 34890 ft | 410 kts | 235° |
| 2026-05-07 19:44 | 40.79666 | -6.94607 | 34901 ft | 409 kts | 235° |
| 2026-05-07 19:44 | 40.76234 | -7.00595 | 34903 ft | 409 kts | 235° |
| 2026-05-07 19:45 | 40.72795 | -7.06572 | 34904 ft | 409 kts | 235° |
| 2026-05-07 19:45 | 40.69352 | -7.12536 | 34908 ft | 408 kts | 235° |
| 2026-05-07 19:46 | 40.65913 | -7.18493 | 34898 ft | 408 kts | 236° |
| 2026-05-07 19:46 | 40.62496 | -7.24403 | 34903 ft | 408 kts | 235° |
| 2026-05-07 19:47 | 40.59056 | -7.30343 | 34907 ft | 408 kts | 235° |
| 2026-05-07 19:47 | 40.55610 | -7.36275 | 34906 ft | 408 kts | 234° |
| 2026-05-07 19:48 | 40.52160 | -7.42193 | 34926 ft | 406 kts | 234° |
| 2026-05-07 19:48 | 40.48746 | -7.48053 | 34944 ft | 402 kts | 235° |
| 2026-05-07 19:49 | 40.45361 | -7.53867 | 34942 ft | 399 kts | 235° |
| 2026-05-07 19:49 | 40.41985 | -7.59633 | 34944 ft | 398 kts | 234° |
| 2026-05-07 19:50 | 40.38614 | -7.65384 | 34946 ft | 397 kts | 234° |
| 2026-05-07 19:50 | 40.35250 | -7.71115 | 34942 ft | 397 kts | 234° |
| 2026-05-07 19:51 | 40.31905 | -7.76796 | 34939 ft | 396 kts | 234° |
| 2026-05-07 19:51 | 40.28517 | -7.82543 | 34928 ft | 396 kts | 234° |
| 2026-05-07 19:52 | 40.25153 | -7.88246 | 34923 ft | 396 kts | 234° |
| 2026-05-07 19:52 | 40.21802 | -7.93904 | 34924 ft | 396 kts | 234° |
| 2026-05-07 19:53 | 40.20114 | -7.96752 | 34791 ft | 397 kts | 234° |
| 2026-05-07 19:53 | 40.18427 | -7.99600 | 34545 ft | 395 kts | 234° |
| 2026-05-07 19:53 | 40.16732 | -8.02461 | 34299 ft | 403 kts | 234° |
| 2026-05-07 19:53 | 40.15015 | -8.05358 | 34057 ft | 402 kts | 234° |
| 2026-05-07 19:54 | 40.13303 | -8.08235 | 33807 ft | 401 kts | 234° |
| 2026-05-07 19:54 | 40.11589 | -8.11108 | 33535 ft | 401 kts | 234° |
| 2026-05-07 19:54 | 40.09869 | -8.13988 | 32887 ft | 404 kts | 233° |
| 2026-05-07 19:54 | 40.08135 | -8.16894 | 31954 ft | 407 kts | 233° |
| 2026-05-07 19:55 | 40.06387 | -8.19820 | 31058 ft | 410 kts | 233° |
| 2026-05-07 19:55 | 40.04636 | -8.22758 | 30392 ft | 408 kts | 233° |
| 2026-05-07 19:55 | 40.02860 | -8.25624 | 29786 ft | 405 kts | 228° |
| 2026-05-07 19:55 | 40.00747 | -8.28023 | 29167 ft | 403 kts | 216° |
| 2026-05-07 19:56 | 39.98301 | -8.29781 | 28636 ft | 401 kts | 205° |
| 2026-05-07 19:56 | 39.95632 | -8.30845 | 28288 ft | 403 kts | 194° |
| 2026-05-07 19:56 | 39.92857 | -8.31336 | 27879 ft | 402 kts | 190° |
| 2026-05-07 19:56 | 39.90092 | -8.31764 | 27477 ft | 399 kts | 190° |
| 2026-05-07 19:57 | 39.87344 | -8.32186 | 27073 ft | 396 kts | 190° |
| 2026-05-07 19:57 | 39.84629 | -8.32781 | 26761 ft | 396 kts | 200° |
| 2026-05-07 19:57 | 39.82142 | -8.34265 | 26507 ft | 393 kts | 215° |
| 2026-05-07 19:57 | 39.79950 | -8.36368 | 26163 ft | 391 kts | 218° |
| 2026-05-07 19:58 | 39.77803 | -8.38512 | 25799 ft | 388 kts | 219° |
| 2026-05-07 19:58 | 39.75677 | -8.40663 | 25433 ft | 386 kts | 219° |
| 2026-05-07 19:58 | 39.73571 | -8.42806 | 25074 ft | 384 kts | 219° |
| 2026-05-07 19:58 | 39.71471 | -8.44943 | 24706 ft | 382 kts | 219° |
| 2026-05-07 19:59 | 39.69379 | -8.47064 | 24355 ft | 381 kts | 218° |
| 2026-05-07 19:59 | 39.67288 | -8.49171 | 24013 ft | 380 kts | 218° |
| 2026-05-07 19:59 | 39.65232 | -8.51236 | 23682 ft | 378 kts | 218° |
| 2026-05-07 19:59 | 39.63158 | -8.53315 | 23306 ft | 376 kts | 218° |
| 2026-05-07 20:00 | 39.61090 | -8.55384 | 22900 ft | 375 kts | 218° |
| 2026-05-07 20:00 | 39.59030 | -8.57444 | 22501 ft | 373 kts | 218° |
| 2026-05-07 20:00 | 39.56994 | -8.59481 | 22100 ft | 366 kts | 217° |
| 2026-05-07 20:00 | 39.54996 | -8.61481 | 21713 ft | 360 kts | 217° |
| 2026-05-07 20:01 | 39.53019 | -8.63459 | 21331 ft | 358 kts | 217° |
| 2026-05-07 20:01 | 39.51046 | -8.65427 | 20955 ft | 357 kts | 217° |
| 2026-05-07 20:01 | 39.49082 | -8.67383 | 20582 ft | 356 kts | 217° |
| 2026-05-07 20:01 | 39.47129 | -8.69333 | 20200 ft | 354 kts | 217° |
| 2026-05-07 20:02 | 39.45186 | -8.71272 | 19839 ft | 351 kts | 216° |
| 2026-05-07 20:02 | 39.43259 | -8.73194 | 19496 ft | 348 kts | 216° |
| 2026-05-07 20:02 | 39.41356 | -8.75087 | 19184 ft | 341 kts | 216° |
| 2026-05-07 20:02 | 39.39503 | -8.76925 | 19006 ft | 330 kts | 216° |
| 2026-05-07 20:03 | 39.37707 | -8.78707 | 18842 ft | 320 kts | 216° |
| 2026-05-07 20:03 | 39.35974 | -8.80430 | 18721 ft | 310 kts | 216° |
| 2026-05-07 20:03 | 39.34279 | -8.82112 | 18605 ft | 306 kts | 216° |
| 2026-05-07 20:03 | 39.32596 | -8.83780 | 18492 ft | 304 kts | 216° |
| 2026-05-07 20:04 | 39.30920 | -8.85442 | 18377 ft | 304 kts | 216° |
| 2026-05-07 20:04 | 39.29247 | -8.87100 | 18216 ft | 303 kts | 216° |
| 2026-05-07 20:04 | 39.27574 | -8.88753 | 17828 ft | 302 kts | 216° |
| 2026-05-07 20:04 | 39.25912 | -8.90395 | 17460 ft | 300 kts | 216° |
| 2026-05-07 20:05 | 39.24257 | -8.92032 | 17089 ft | 299 kts | 216° |
| 2026-05-07 20:05 | 39.22608 | -8.93660 | 16719 ft | 298 kts | 216° |
| 2026-05-07 20:05 | 39.20963 | -8.95281 | 16347 ft | 297 kts | 216° |
| 2026-05-07 20:05 | 39.19324 | -8.96898 | 16002 ft | 296 kts | 216° |
| 2026-05-07 20:06 | 39.17692 | -8.98511 | 15647 ft | 295 kts | 215° |
| 2026-05-07 20:06 | 39.16086 | -9.00096 | 15292 ft | 294 kts | 215° |
| 2026-05-07 20:06 | 39.14463 | -9.01697 | 14958 ft | 293 kts | 215° |
| 2026-05-07 20:06 | 39.12846 | -9.03289 | 14617 ft | 292 kts | 215° |
| 2026-05-07 20:07 | 39.11233 | -9.04877 | 14268 ft | 291 kts | 215° |
| 2026-05-07 20:07 | 39.09625 | -9.06459 | 13945 ft | 290 kts | 215° |
| 2026-05-07 20:07 | 39.08024 | -9.08034 | 13597 ft | 289 kts | 215° |
| 2026-05-07 20:07 | 39.06431 | -9.09601 | 13226 ft | 288 kts | 215° |
| 2026-05-07 20:08 | 39.04841 | -9.11162 | 12876 ft | 286 kts | 214° |
| 2026-05-07 20:08 | 39.03263 | -9.12709 | 12509 ft | 284 kts | 215° |
| 2026-05-07 20:08 | 39.01697 | -9.14243 | 12179 ft | 282 kts | 215° |
| 2026-05-07 20:08 | 39.00145 | -9.15765 | 11869 ft | 279 kts | 215° |
| 2026-05-07 20:09 | 38.98607 | -9.17272 | 11570 ft | 277 kts | 215° |
| 2026-05-07 20:09 | 38.97078 | -9.18769 | 11271 ft | 276 kts | 215° |
| 2026-05-07 20:09 | 38.95556 | -9.20258 | 10969 ft | 274 kts | 215° |
| 2026-05-07 20:10 | 38.92572 | -9.23177 | 10505 ft | 263 kts | 215° |
| 2026-05-07 20:10 | 38.91145 | -9.24573 | 10386 ft | 254 kts | 215° |
| 2026-05-07 20:10 | 38.89763 | -9.25925 | 10265 ft | 245 kts | 215° |
| 2026-05-07 20:10 | 38.88425 | -9.27234 | 10144 ft | 239 kts | 215° |
| 2026-05-07 20:11 | 38.87104 | -9.28519 | 10017 ft | 238 kts | 215° |
| 2026-05-07 20:11 | 38.85783 | -9.29798 | 9769 ft | 237 kts | 215° |
| 2026-05-07 20:11 | 38.84470 | -9.31071 | 9505 ft | 236 kts | 215° |
| 2026-05-07 20:11 | 38.83180 | -9.32324 | 9238 ft | 236 kts | 215° |
| 2026-05-07 20:12 | 38.81876 | -9.33594 | 8975 ft | 235 kts | 216° |
| 2026-05-07 20:12 | 38.80577 | -9.34860 | 8706 ft | 234 kts | 216° |
| 2026-05-07 20:12 | 38.79282 | -9.36122 | 8468 ft | 234 kts | 216° |
| 2026-05-07 20:12 | 38.77988 | -9.37380 | 8194 ft | 233 kts | 216° |
| 2026-05-07 20:13 | 38.76698 | -9.38632 | 8005 ft | 232 kts | 216° |
| 2026-05-07 20:13 | 38.75408 | -9.39884 | 7952 ft | 233 kts | 216° |
| 2026-05-07 20:13 | 38.74115 | -9.41137 | 7948 ft | 233 kts | 216° |
| 2026-05-07 20:13 | 38.72821 | -9.42391 | 7952 ft | 233 kts | 216° |
| 2026-05-07 20:14 | 38.71528 | -9.43646 | 7949 ft | 233 kts | 216° |
| 2026-05-07 20:14 | 38.70232 | -9.44902 | 7958 ft | 233 kts | 216° |
| 2026-05-07 20:14 | 38.68938 | -9.46156 | 7954 ft | 234 kts | 216° |
| 2026-05-07 20:14 | 38.67642 | -9.47410 | 7963 ft | 234 kts | 217° |
| 2026-05-07 20:15 | 38.66346 | -9.48664 | 7954 ft | 234 kts | 217° |
| 2026-05-07 20:15 | 38.64969 | -9.49757 | 7957 ft | 233 kts | 200° |
| 2026-05-07 20:15 | 38.63367 | -9.50020 | 7963 ft | 236 kts | 176° |
| 2026-05-07 20:15 | 38.61735 | -9.49742 | 7958 ft | 237 kts | 174° |
| 2026-05-07 20:16 | 38.60103 | -9.49441 | 7958 ft | 237 kts | 174° |
| 2026-05-07 20:16 | 38.58471 | -9.49134 | 7957 ft | 237 kts | 174° |
| 2026-05-07 20:16 | 38.56839 | -9.48828 | 7957 ft | 237 kts | 174° |
| 2026-05-07 20:16 | 38.55207 | -9.48526 | 7957 ft | 237 kts | 174° |
| 2026-05-07 20:17 | 38.53575 | -9.48228 | 7961 ft | 237 kts | 174° |
| 2026-05-07 20:17 | 38.51949 | -9.47871 | 7952 ft | 238 kts | 165° |
| 2026-05-07 20:17 | 38.50505 | -9.46816 | 7740 ft | 243 kts | 137° |
| 2026-05-07 20:17 | 38.49619 | -9.44992 | 7402 ft | 247 kts | 109° |
| 2026-05-07 20:18 | 38.49534 | -9.42800 | 7035 ft | 253 kts | 79° |
| 2026-05-07 20:18 | 38.50278 | -9.40765 | 6656 ft | 256 kts | 57° |
| 2026-05-07 20:18 | 38.51271 | -9.38876 | 6288 ft | 256 kts | 57° |
| 2026-05-07 20:18 | 38.52270 | -9.36992 | 5894 ft | 255 kts | 56° |
| 2026-05-07 20:19 | 38.53246 | -9.35147 | 5499 ft | 248 kts | 56° |
| 2026-05-07 20:19 | 38.54207 | -9.33321 | 5155 ft | 247 kts | 56° |
| 2026-05-07 20:19 | 38.55162 | -9.31499 | 4839 ft | 246 kts | 56° |
| 2026-05-07 20:19 | 38.56110 | -9.29683 | 4504 ft | 245 kts | 54° |
| 2026-05-07 20:20 | 38.57055 | -9.27874 | 4166 ft | 244 kts | 54° |
| 2026-05-07 20:20 | 38.57972 | -9.26116 | 4013 ft | 235 kts | 55° |
| 2026-05-07 20:20 | 38.58875 | -9.24449 | 4004 ft | 220 kts | 46° |
| 2026-05-07 20:20 | 38.60030 | -9.23260 | 3866 ft | 210 kts | 23° |
| 2026-05-07 20:21 | 38.61364 | -9.22528 | 3614 ft | 208 kts | 19° |
| 2026-05-07 20:21 | 38.62706 | -9.21821 | 3342 ft | 209 kts | 20° |
| 2026-05-07 20:21 | 38.64050 | -9.21108 | 3057 ft | 208 kts | 19° |
| 2026-05-07 20:21 | 38.65365 | -9.20407 | 2785 ft | 202 kts | 19° |
| 2026-05-07 20:22 | 38.66658 | -9.19718 | 2513 ft | 200 kts | 19° |
| 2026-05-07 20:22 | 38.67911 | -9.19050 | 2253 ft | 190 kts | 19° |
| 2026-05-07 20:22 | 38.69093 | -9.18419 | 1985 ft | 178 kts | 19° |
| 2026-05-07 20:22 | 38.70189 | -9.17834 | 1754 ft | 164 kts | 19° |
| 2026-05-07 20:23 | 38.71176 | -9.17306 | 1536 ft | 146 kts | 17° |
| 2026-05-07 20:23 | 38.72078 | -9.16825 | 1351 ft | 137 kts | 17° |
| 2026-05-07 20:23 | 38.72949 | -9.16361 | 1158 ft | 135 kts | 19° |
| 2026-05-07 20:23 | 38.73817 | -9.15899 | 985 ft | 135 kts | 18° |
| 2026-05-07 20:24 | 38.74686 | -9.15436 | 797 ft | 137 kts | 20° |
| 2026-05-07 20:24 | 38.75565 | -9.14961 | 618 ft | 136 kts | 19° |
| 2026-05-07 20:24 | 38.76445 | -9.14487 | 448 ft | 137 kts | 19° |
| 2026-05-07 20:24 | 38.77311 | -9.14037 | 360 ft | 123 kts | 20° |
| 2026-05-07 20:25 | 38.77950 | -9.13693 | 367 ft | 75 kts | 23° |
| 2026-05-07 20:25 | 38.78230 | -9.13527 | 371 ft | 26 kts | 34° |
| 2026-05-07 20:25 | 38.78356 | -9.13373 | 365 ft | 17 kts | 51° |
| 2026-05-07 20:25 | 38.78371 | -9.13299 | 363 ft | 0 kts | 101° |
| 2026-05-07 20:26 | 38.78370 | -9.13294 | 364 ft | 1 kts | 105° |
| 2026-05-07 20:26 | 38.78368 | -9.13289 | 364 ft | 0 kts | 110° |
| 2026-05-07 20:26 | 38.78365 | -9.13282 | 364 ft | 2 kts | 123° |
| 2026-05-07 20:26 | 38.78350 | -9.13267 | 360 ft | 4 kts | 152° |
| 2026-05-07 20:27 | 38.78328 | -9.13264 | 359 ft | 5 kts | 182° |
| 2026-05-07 20:27 | 38.78293 | -9.13278 | 362 ft | 5 kts | 202° |
| 2026-05-07 20:27 | 38.78261 | -9.13295 | 361 ft | 5 kts | 203° |
| 2026-05-07 20:27 | 38.78196 | -9.13330 | 358 ft | 19 kts | 202° |
| 2026-05-07 20:28 | 38.78062 | -9.13399 | 360 ft | 20 kts | 200° |
| 2026-05-07 20:28 | 38.77918 | -9.13389 | 356 ft | 24 kts | 167° |
| 2026-05-07 20:28 | 38.77759 | -9.13346 | 346 ft | 24 kts | 168° |
| 2026-05-07 20:28 | 38.77630 | -9.13321 | 336 ft | 16 kts | 179° |
| 2026-05-07 20:29 | 38.77525 | -9.13305 | 338 ft | 14 kts | 168° |
| 2026-05-07 20:29 | 38.77431 | -9.13279 | 338 ft | 13 kts | 168° |
| 2026-05-07 20:29 | 38.77345 | -9.13260 | 338 ft | 12 kts | 172° |
| 2026-05-07 20:29 | 38.77268 | -9.13244 | 337 ft | 11 kts | 167° |
| 2026-05-07 20:30 | 38.77201 | -9.13221 | 333 ft | 7 kts | 143° |
| 2026-05-07 20:30 | 38.77200 | -9.13172 | 335 ft | 3 kts | 76° |
| 2026-05-07 20:30 | 38.77204 | -9.13150 | 336 ft | 2 kts | 77° |
| 2026-05-07 20:30 | 38.77206 | -9.13139 | 333 ft | 1 kts | 78° |
| 2026-05-07 20:31 | 38.77207 | -9.13135 | 333 ft | 0 kts | 78° |
| 2026-05-07 20:46 | 38.77210 | -9.13136 | 337 ft | 0 kts | 78° |